sensor_id;sensor_type;location;lat;lon;timestamp;P1;durP1;ratioP1;P2;durP2;ratioP2
24715;SDS011;12822;50.124;8.678;2022-12-24T00:02:08;16.80;;;3.33;;
24715;SDS011;12822;50.124;8.678;2022-12-24T00:04:34;19.23;;;3.20;;
24715;SDS011;12822;50.124;8.678;2022-12-24T00:07:00;14.43;;;3.03;;
24715;SDS011;12822;50.124;8.678;2022-12-24T00:09:26;16.23;;;3.33;;
24715;SDS011;12822;50.124;8.678;2022-12-24T00:11:52;13.18;;;2.75;;
24715;SDS011;12822;50.124;8.678;2022-12-24T00:14:18;13.90;;;3.00;;
24715;SDS011;12822;50.124;8.678;2022-12-24T00:16:44;17.60;;;3.20;;
24715;SDS011;12822;50.124;8.678;2022-12-24T00:19:10;19.73;;;3.05;;
24715;SDS011;12822;50.124;8.678;2022-12-24T00:21:36;18.02;;;3.00;;
24715;SDS011;12822;50.124;8.678;2022-12-24T00:24:02;19.65;;;3.40;;
24715;SDS011;12822;50.124;8.678;2022-12-24T00:26:30;13.75;;;2.78;;
24715;SDS011;12822;50.124;8.678;2022-12-24T00:28:56;18.85;;;3.88;;
24715;SDS011;12822;50.124;8.678;2022-12-24T00:31:21;15.93;;;2.85;;
24715;SDS011;12822;50.124;8.678;2022-12-24T00:33:48;18.55;;;3.67;;
24715;SDS011;12822;50.124;8.678;2022-12-24T00:36:14;15.00;;;2.85;;
24715;SDS011;12822;50.124;8.678;2022-12-24T00:38:40;14.30;;;2.90;;
24715;SDS011;12822;50.124;8.678;2022-12-24T00:41:06;16.58;;;2.80;;
24715;SDS011;12822;50.124;8.678;2022-12-24T00:43:51;10.02;;;2.72;;
24715;SDS011;12822;50.124;8.678;2022-12-24T00:46:18;16.42;;;2.88;;
24715;SDS011;12822;50.124;8.678;2022-12-24T00:48:44;15.23;;;2.45;;
24715;SDS011;12822;50.124;8.678;2022-12-24T00:51:10;20.48;;;3.15;;
24715;SDS011;12822;50.124;8.678;2022-12-24T00:53:36;20.95;;;3.28;;
24715;SDS011;12822;50.124;8.678;2022-12-24T00:56:01;10.23;;;2.22;;
24715;SDS011;12822;50.124;8.678;2022-12-24T00:58:27;11.65;;;2.80;;
24715;SDS011;12822;50.124;8.678;2022-12-24T01:00:53;17.65;;;2.83;;
24715;SDS011;12822;50.124;8.678;2022-12-24T01:03:19;18.02;;;3.22;;
24715;SDS011;12822;50.124;8.678;2022-12-24T01:05:45;13.60;;;2.83;;
24715;SDS011;12822;50.124;8.678;2022-12-24T01:08:12;21.92;;;3.35;;
24715;SDS011;12822;50.124;8.678;2022-12-24T01:10:38;20.75;;;3.22;;
24715;SDS011;12822;50.124;8.678;2022-12-24T01:13:04;15.77;;;3.10;;
24715;SDS011;12822;50.124;8.678;2022-12-24T01:15:30;17.88;;;3.80;;
24715;SDS011;12822;50.124;8.678;2022-12-24T01:17:56;24.20;;;4.15;;
24715;SDS011;12822;50.124;8.678;2022-12-24T01:20:23;20.80;;;5.47;;
24715;SDS011;12822;50.124;8.678;2022-12-24T01:22:51;20.33;;;4.60;;
24715;SDS011;12822;50.124;8.678;2022-12-24T01:25:17;21.73;;;3.72;;
24715;SDS011;12822;50.124;8.678;2022-12-24T01:27:43;23.60;;;4.45;;
24715;SDS011;12822;50.124;8.678;2022-12-24T01:30:10;48.53;;;13.07;;
24715;SDS011;12822;50.124;8.678;2022-12-24T01:32:38;53.45;;;17.55;;
24715;SDS011;12822;50.124;8.678;2022-12-24T01:35:04;38.67;;;12.25;;
24715;SDS011;12822;50.124;8.678;2022-12-24T01:37:30;25.23;;;5.57;;
24715;SDS011;12822;50.124;8.678;2022-12-24T01:39:56;28.75;;;5.78;;
24715;SDS011;12822;50.124;8.678;2022-12-24T01:42:45;18.65;;;3.80;;
24715;SDS011;12822;50.124;8.678;2022-12-24T01:45:42;21.10;;;2.90;;
24715;SDS011;12822;50.124;8.678;2022-12-24T01:50:52;13.80;;;2.75;;
24715;SDS011;12822;50.124;8.678;2022-12-24T01:53:20;14.85;;;2.65;;
24715;SDS011;12822;50.124;8.678;2022-12-24T01:55:46;21.27;;;3.70;;
24715;SDS011;12822;50.124;8.678;2022-12-24T01:58:13;14.82;;;3.05;;
24715;SDS011;12822;50.124;8.678;2022-12-24T02:00:41;20.20;;;3.28;;
24715;SDS011;12822;50.124;8.678;2022-12-24T02:03:07;14.90;;;2.60;;
24715;SDS011;12822;50.124;8.678;2022-12-24T02:05:42;12.88;;;3.05;;
24715;SDS011;12822;50.124;8.678;2022-12-24T02:08:11;16.02;;;2.72;;
24715;SDS011;12822;50.124;8.678;2022-12-24T02:10:37;19.55;;;3.05;;
24715;SDS011;12822;50.124;8.678;2022-12-24T02:13:03;16.23;;;2.78;;
24715;SDS011;12822;50.124;8.678;2022-12-24T02:15:33;19.48;;;3.03;;
24715;SDS011;12822;50.124;8.678;2022-12-24T02:18:06;13.60;;;2.85;;
24715;SDS011;12822;50.124;8.678;2022-12-24T02:20:40;15.15;;;3.05;;
24715;SDS011;12822;50.124;8.678;2022-12-24T02:31:03;19.13;;;3.00;;
24715;SDS011;12822;50.124;8.678;2022-12-24T02:36:19;23.85;;;2.97;;
24715;SDS011;12822;50.124;8.678;2022-12-24T02:38:49;23.23;;;3.45;;
24715;SDS011;12822;50.124;8.678;2022-12-24T02:41:24;17.38;;;3.20;;
24715;SDS011;12822;50.124;8.678;2022-12-24T02:43:50;22.08;;;3.40;;
24715;SDS011;12822;50.124;8.678;2022-12-24T02:46:18;17.77;;;2.55;;
24715;SDS011;12822;50.124;8.678;2022-12-24T02:48:46;19.83;;;3.45;;
24715;SDS011;12822;50.124;8.678;2022-12-24T02:51:13;19.83;;;3.15;;
24715;SDS011;12822;50.124;8.678;2022-12-24T02:53:39;24.05;;;2.92;;
24715;SDS011;12822;50.124;8.678;2022-12-24T02:56:43;27.95;;;4.13;;
24715;SDS011;12822;50.124;8.678;2022-12-24T03:01:45;12.38;;;2.20;;
24715;SDS011;12822;50.124;8.678;2022-12-24T03:04:20;15.00;;;3.75;;
24715;SDS011;12822;50.124;8.678;2022-12-24T03:07:26;19.25;;;3.17;;
24715;SDS011;12822;50.124;8.678;2022-12-24T03:09:55;21.38;;;3.47;;
24715;SDS011;12822;50.124;8.678;2022-12-24T03:12:37;17.60;;;3.00;;
24715;SDS011;12822;50.124;8.678;2022-12-24T03:15:05;23.98;;;4.13;;
24715;SDS011;12822;50.124;8.678;2022-12-24T03:17:33;23.73;;;3.70;;
24715;SDS011;12822;50.124;8.678;2022-12-24T03:19:59;17.02;;;2.85;;
24715;SDS011;12822;50.124;8.678;2022-12-24T03:22:25;20.98;;;3.30;;
24715;SDS011;12822;50.124;8.678;2022-12-24T03:24:51;14.88;;;2.67;;
24715;SDS011;12822;50.124;8.678;2022-12-24T03:27:17;20.75;;;3.47;;
24715;SDS011;12822;50.124;8.678;2022-12-24T03:29:44;24.60;;;3.13;;
24715;SDS011;12822;50.124;8.678;2022-12-24T03:32:11;20.90;;;3.70;;
24715;SDS011;12822;50.124;8.678;2022-12-24T03:34:36;25.58;;;3.25;;
24715;SDS011;12822;50.124;8.678;2022-12-24T03:37:03;22.75;;;4.13;;
24715;SDS011;12822;50.124;8.678;2022-12-24T03:39:29;14.82;;;2.72;;
24715;SDS011;12822;50.124;8.678;2022-12-24T03:41:55;23.70;;;3.38;;
24715;SDS011;12822;50.124;8.678;2022-12-24T03:44:21;18.65;;;2.97;;
24715;SDS011;12822;50.124;8.678;2022-12-24T03:46:54;26.13;;;3.22;;
24715;SDS011;12822;50.124;8.678;2022-12-24T03:49:20;18.17;;;2.85;;
24715;SDS011;12822;50.124;8.678;2022-12-24T03:51:46;19.55;;;3.25;;
24715;SDS011;12822;50.124;8.678;2022-12-24T03:54:12;17.83;;;2.97;;
24715;SDS011;12822;50.124;8.678;2022-12-24T03:56:38;12.20;;;2.58;;
24715;SDS011;12822;50.124;8.678;2022-12-24T03:59:04;17.67;;;2.70;;
24715;SDS011;12822;50.124;8.678;2022-12-24T04:01:30;20.52;;;2.58;;
24715;SDS011;12822;50.124;8.678;2022-12-24T04:03:56;17.17;;;3.13;;
24715;SDS011;12822;50.124;8.678;2022-12-24T04:06:22;19.77;;;3.08;;
24715;SDS011;12822;50.124;8.678;2022-12-24T04:08:48;12.27;;;2.35;;
24715;SDS011;12822;50.124;8.678;2022-12-24T04:11:14;14.48;;;2.72;;
24715;SDS011;12822;50.124;8.678;2022-12-24T04:13:40;22.42;;;3.30;;
24715;SDS011;12822;50.124;8.678;2022-12-24T04:16:08;16.17;;;2.92;;
24715;SDS011;12822;50.124;8.678;2022-12-24T04:18:34;15.88;;;2.63;;
24715;SDS011;12822;50.124;8.678;2022-12-24T04:21:01;12.80;;;2.83;;
24715;SDS011;12822;50.124;8.678;2022-12-24T04:23:29;13.48;;;2.63;;
24715;SDS011;12822;50.124;8.678;2022-12-24T04:25:55;14.60;;;2.80;;
24715;SDS011;12822;50.124;8.678;2022-12-24T04:28:21;20.92;;;3.22;;
24715;SDS011;12822;50.124;8.678;2022-12-24T04:30:58;22.40;;;3.50;;
24715;SDS011;12822;50.124;8.678;2022-12-24T04:33:24;14.88;;;2.95;;
24715;SDS011;12822;50.124;8.678;2022-12-24T04:35:50;15.15;;;3.22;;
24715;SDS011;12822;50.124;8.678;2022-12-24T04:38:16;24.98;;;3.40;;
24715;SDS011;12822;50.124;8.678;2022-12-24T04:40:42;25.85;;;3.55;;
24715;SDS011;12822;50.124;8.678;2022-12-24T04:43:08;14.98;;;2.97;;
24715;SDS011;12822;50.124;8.678;2022-12-24T04:45:34;24.80;;;3.83;;
24715;SDS011;12822;50.124;8.678;2022-12-24T04:48:00;24.73;;;2.90;;
24715;SDS011;12822;50.124;8.678;2022-12-24T04:50:26;22.60;;;2.83;;
24715;SDS011;12822;50.124;8.678;2022-12-24T04:52:52;22.20;;;3.50;;
24715;SDS011;12822;50.124;8.678;2022-12-24T04:55:18;13.75;;;3.25;;
24715;SDS011;12822;50.124;8.678;2022-12-24T04:57:45;23.33;;;3.42;;
24715;SDS011;12822;50.124;8.678;2022-12-24T05:00:11;19.80;;;3.05;;
24715;SDS011;12822;50.124;8.678;2022-12-24T05:02:37;20.30;;;3.65;;
24715;SDS011;12822;50.124;8.678;2022-12-24T05:05:03;21.08;;;3.70;;
24715;SDS011;12822;50.124;8.678;2022-12-24T05:07:29;22.63;;;3.70;;
24715;SDS011;12822;50.124;8.678;2022-12-24T05:09:55;18.42;;;3.40;;
24715;SDS011;12822;50.124;8.678;2022-12-24T05:12:21;17.98;;;2.83;;
24715;SDS011;12822;50.124;8.678;2022-12-24T05:14:47;16.55;;;3.10;;
24715;SDS011;12822;50.124;8.678;2022-12-24T05:17:13;20.38;;;3.38;;
24715;SDS011;12822;50.124;8.678;2022-12-24T05:19:39;18.08;;;3.28;;
24715;SDS011;12822;50.124;8.678;2022-12-24T05:22:05;22.05;;;4.03;;
24715;SDS011;12822;50.124;8.678;2022-12-24T05:24:50;17.63;;;3.20;;
24715;SDS011;12822;50.124;8.678;2022-12-24T05:27:34;17.35;;;3.03;;
24715;SDS011;12822;50.124;8.678;2022-12-24T05:30:00;16.88;;;2.90;;
24715;SDS011;12822;50.124;8.678;2022-12-24T05:32:26;13.90;;;2.75;;
24715;SDS011;12822;50.124;8.678;2022-12-24T05:34:52;15.48;;;2.92;;
24715;SDS011;12822;50.124;8.678;2022-12-24T05:37:18;16.33;;;3.83;;
24715;SDS011;12822;50.124;8.678;2022-12-24T05:39:44;17.63;;;3.03;;
24715;SDS011;12822;50.124;8.678;2022-12-24T05:42:10;24.60;;;3.92;;
24715;SDS011;12822;50.124;8.678;2022-12-24T05:44:36;16.75;;;3.05;;
24715;SDS011;12822;50.124;8.678;2022-12-24T05:47:02;25.13;;;3.78;;
24715;SDS011;12822;50.124;8.678;2022-12-24T05:49:28;16.85;;;2.92;;
24715;SDS011;12822;50.124;8.678;2022-12-24T05:51:54;18.38;;;3.35;;
24715;SDS011;12822;50.124;8.678;2022-12-24T05:54:20;22.60;;;4.18;;
24715;SDS011;12822;50.124;8.678;2022-12-24T05:56:46;17.95;;;3.30;;
24715;SDS011;12822;50.124;8.678;2022-12-24T05:59:12;21.73;;;3.03;;
24715;SDS011;12822;50.124;8.678;2022-12-24T06:01:38;20.58;;;3.53;;
24715;SDS011;12822;50.124;8.678;2022-12-24T06:04:05;17.33;;;3.30;;
24715;SDS011;12822;50.124;8.678;2022-12-24T06:06:31;15.93;;;3.08;;
24715;SDS011;12822;50.124;8.678;2022-12-24T06:08:57;21.42;;;3.88;;
24715;SDS011;12822;50.124;8.678;2022-12-24T06:11:24;18.33;;;3.28;;
24715;SDS011;12822;50.124;8.678;2022-12-24T06:13:51;17.20;;;3.00;;
24715;SDS011;12822;50.124;8.678;2022-12-24T06:16:18;14.73;;;3.08;;
24715;SDS011;12822;50.124;8.678;2022-12-24T06:18:44;14.85;;;3.00;;
24715;SDS011;12822;50.124;8.678;2022-12-24T06:21:10;25.05;;;3.70;;
24715;SDS011;12822;50.124;8.678;2022-12-24T06:23:37;17.42;;;3.17;;
24715;SDS011;12822;50.124;8.678;2022-12-24T06:26:04;17.55;;;3.53;;
24715;SDS011;12822;50.124;8.678;2022-12-24T06:28:31;23.15;;;3.80;;
24715;SDS011;12822;50.124;8.678;2022-12-24T06:30:57;17.25;;;2.90;;
24715;SDS011;12822;50.124;8.678;2022-12-24T06:33:25;17.63;;;2.90;;
24715;SDS011;12822;50.124;8.678;2022-12-24T06:35:51;18.77;;;3.15;;
24715;SDS011;12822;50.124;8.678;2022-12-24T06:38:17;22.55;;;2.90;;
24715;SDS011;12822;50.124;8.678;2022-12-24T06:40:46;21.40;;;4.28;;
24715;SDS011;12822;50.124;8.678;2022-12-24T06:43:13;23.50;;;3.72;;
24715;SDS011;12822;50.124;8.678;2022-12-24T06:45:42;17.50;;;3.13;;
24715;SDS011;12822;50.124;8.678;2022-12-24T06:48:09;21.65;;;3.60;;
24715;SDS011;12822;50.124;8.678;2022-12-24T06:50:35;26.48;;;3.45;;
24715;SDS011;12822;50.124;8.678;2022-12-24T06:53:01;21.23;;;3.58;;
24715;SDS011;12822;50.124;8.678;2022-12-24T06:55:27;17.08;;;3.20;;
24715;SDS011;12822;50.124;8.678;2022-12-24T06:57:53;21.48;;;3.65;;
24715;SDS011;12822;50.124;8.678;2022-12-24T07:00:19;21.00;;;3.00;;
24715;SDS011;12822;50.124;8.678;2022-12-24T07:02:46;22.02;;;3.70;;
24715;SDS011;12822;50.124;8.678;2022-12-24T07:05:12;21.75;;;4.07;;
24715;SDS011;12822;50.124;8.678;2022-12-24T07:07:39;23.00;;;3.58;;
24715;SDS011;12822;50.124;8.678;2022-12-24T07:10:07;21.92;;;3.53;;
24715;SDS011;12822;50.124;8.678;2022-12-24T07:12:33;28.48;;;4.75;;
24715;SDS011;12822;50.124;8.678;2022-12-24T07:15:01;21.17;;;3.80;;
24715;SDS011;12822;50.124;8.678;2022-12-24T07:17:27;27.67;;;4.72;;
24715;SDS011;12822;50.124;8.678;2022-12-24T07:19:53;27.42;;;4.30;;
24715;SDS011;12822;50.124;8.678;2022-12-24T07:22:19;21.15;;;3.85;;
24715;SDS011;12822;50.124;8.678;2022-12-24T07:24:45;24.40;;;4.20;;
24715;SDS011;12822;50.124;8.678;2022-12-24T07:27:11;26.60;;;5.03;;
24715;SDS011;12822;50.124;8.678;2022-12-24T07:29:37;31.13;;;4.78;;
24715;SDS011;12822;50.124;8.678;2022-12-24T07:32:05;30.33;;;4.53;;
24715;SDS011;12822;50.124;8.678;2022-12-24T07:34:31;39.75;;;4.97;;
24715;SDS011;12822;50.124;8.678;2022-12-24T07:36:57;24.17;;;4.80;;
24715;SDS011;12822;50.124;8.678;2022-12-24T07:39:23;26.30;;;3.88;;
24715;SDS011;12822;50.124;8.678;2022-12-24T07:41:49;29.80;;;4.95;;
24715;SDS011;12822;50.124;8.678;2022-12-24T07:44:15;31.67;;;5.43;;
24715;SDS011;12822;50.124;8.678;2022-12-24T07:46:52;26.90;;;4.50;;
24715;SDS011;12822;50.124;8.678;2022-12-24T07:49:18;30.52;;;4.68;;
24715;SDS011;12822;50.124;8.678;2022-12-24T07:51:44;19.27;;;3.40;;
24715;SDS011;12822;50.124;8.678;2022-12-24T07:54:10;27.70;;;5.20;;
24715;SDS011;12822;50.124;8.678;2022-12-24T07:56:36;26.30;;;4.90;;
24715;SDS011;12822;50.124;8.678;2022-12-24T07:59:02;27.25;;;5.38;;
24715;SDS011;12822;50.124;8.678;2022-12-24T08:01:27;29.77;;;4.72;;
24715;SDS011;12822;50.124;8.678;2022-12-24T08:03:53;23.70;;;4.18;;
24715;SDS011;12822;50.124;8.678;2022-12-24T08:06:20;28.88;;;4.22;;
24715;SDS011;12822;50.124;8.678;2022-12-24T08:08:46;28.70;;;4.32;;
24715;SDS011;12822;50.124;8.678;2022-12-24T08:11:12;38.22;;;5.00;;
24715;SDS011;12822;50.124;8.678;2022-12-24T08:13:38;38.30;;;4.82;;
24715;SDS011;12822;50.124;8.678;2022-12-24T08:16:04;27.27;;;4.03;;
24715;SDS011;12822;50.124;8.678;2022-12-24T08:18:31;25.05;;;4.55;;
24715;SDS011;12822;50.124;8.678;2022-12-24T08:20:57;26.92;;;4.40;;
24715;SDS011;12822;50.124;8.678;2022-12-24T08:23:23;25.50;;;5.05;;
24715;SDS011;12822;50.124;8.678;2022-12-24T08:25:49;33.00;;;4.22;;
24715;SDS011;12822;50.124;8.678;2022-12-24T08:28:16;29.17;;;4.97;;
24715;SDS011;12822;50.124;8.678;2022-12-24T08:30:42;33.85;;;4.70;;
24715;SDS011;12822;50.124;8.678;2022-12-24T08:33:08;26.30;;;4.80;;
24715;SDS011;12822;50.124;8.678;2022-12-24T08:35:35;27.00;;;4.20;;
24715;SDS011;12822;50.124;8.678;2022-12-24T08:38:01;29.63;;;4.85;;
24715;SDS011;12822;50.124;8.678;2022-12-24T08:40:27;29.98;;;4.22;;
24715;SDS011;12822;50.124;8.678;2022-12-24T08:43:02;35.38;;;4.30;;
24715;SDS011;12822;50.124;8.678;2022-12-24T08:45:28;30.23;;;4.80;;
24715;SDS011;12822;50.124;8.678;2022-12-24T08:47:54;29.27;;;4.72;;
24715;SDS011;12822;50.124;8.678;2022-12-24T08:50:20;34.58;;;5.50;;
24715;SDS011;12822;50.124;8.678;2022-12-24T08:52:46;35.70;;;5.25;;
24715;SDS011;12822;50.124;8.678;2022-12-24T08:55:12;34.65;;;4.90;;
24715;SDS011;12822;50.124;8.678;2022-12-24T08:57:38;26.73;;;4.97;;
24715;SDS011;12822;50.124;8.678;2022-12-24T09:00:04;29.58;;;5.43;;
24715;SDS011;12822;50.124;8.678;2022-12-24T09:02:34;31.98;;;4.80;;
24715;SDS011;12822;50.124;8.678;2022-12-24T09:05:02;40.15;;;5.15;;
24715;SDS011;12822;50.124;8.678;2022-12-24T09:07:28;36.58;;;7.07;;
24715;SDS011;12822;50.124;8.678;2022-12-24T09:09:54;27.98;;;5.68;;
24715;SDS011;12822;50.124;8.678;2022-12-24T09:12:20;44.17;;;6.18;;
24715;SDS011;12822;50.124;8.678;2022-12-24T09:14:46;28.23;;;4.88;;
24715;SDS011;12822;50.124;8.678;2022-12-24T09:17:12;33.50;;;5.93;;
24715;SDS011;12822;50.124;8.678;2022-12-24T09:19:38;33.90;;;5.05;;
24715;SDS011;12822;50.124;8.678;2022-12-24T09:22:04;34.63;;;5.28;;
24715;SDS011;12822;50.124;8.678;2022-12-24T09:24:30;34.17;;;5.70;;
24715;SDS011;12822;50.124;8.678;2022-12-24T09:26:56;34.20;;;6.03;;
24715;SDS011;12822;50.124;8.678;2022-12-24T09:29:23;34.10;;;5.80;;
24715;SDS011;12822;50.124;8.678;2022-12-24T09:31:49;35.17;;;5.90;;
24715;SDS011;12822;50.124;8.678;2022-12-24T09:34:15;35.40;;;5.30;;
24715;SDS011;12822;50.124;8.678;2022-12-24T09:36:41;32.20;;;6.10;;
24715;SDS011;12822;50.124;8.678;2022-12-24T09:39:07;36.65;;;5.20;;
24715;SDS011;12822;50.124;8.678;2022-12-24T09:45:20;36.42;;;5.57;;
24715;SDS011;12822;50.124;8.678;2022-12-24T09:47:27;27.65;;;5.78;;
24715;SDS011;12822;50.124;8.678;2022-12-24T09:49:55;29.30;;;4.10;;
24715;SDS011;12822;50.124;8.678;2022-12-24T09:52:25;28.92;;;5.07;;
24715;SDS011;12822;50.124;8.678;2022-12-24T09:54:57;28.52;;;4.40;;
24715;SDS011;12822;50.124;8.678;2022-12-24T09:57:31;38.60;;;5.93;;
24715;SDS011;12822;50.124;8.678;2022-12-24T09:59:59;31.40;;;4.97;;
24715;SDS011;12822;50.124;8.678;2022-12-24T10:02:25;38.80;;;5.88;;
24715;SDS011;12822;50.124;8.678;2022-12-24T10:04:51;29.08;;;4.95;;
24715;SDS011;12822;50.124;8.678;2022-12-24T10:07:27;36.80;;;5.53;;
24715;SDS011;12822;50.124;8.678;2022-12-24T10:10:02;30.65;;;5.18;;
24715;SDS011;12822;50.124;8.678;2022-12-24T10:12:55;34.55;;;5.07;;
24715;SDS011;12822;50.124;8.678;2022-12-24T10:28:02;44.65;;;6.95;;
24715;SDS011;12822;50.124;8.678;2022-12-24T10:30:31;34.47;;;6.22;;
24715;SDS011;12822;50.124;8.678;2022-12-24T10:32:58;34.10;;;5.35;;
24715;SDS011;12822;50.124;8.678;2022-12-24T10:35:25;29.35;;;5.65;;
24715;SDS011;12822;50.124;8.678;2022-12-24T10:37:52;29.98;;;6.00;;
24715;SDS011;12822;50.124;8.678;2022-12-24T10:43:20;35.88;;;5.93;;
24715;SDS011;12822;50.124;8.678;2022-12-24T10:45:47;34.75;;;5.18;;
24715;SDS011;12822;50.124;8.678;2022-12-24T10:51:20;35.10;;;5.88;;
24715;SDS011;12822;50.124;8.678;2022-12-24T10:53:58;27.65;;;5.15;;
24715;SDS011;12822;50.124;8.678;2022-12-24T10:56:25;41.95;;;5.97;;
24715;SDS011;12822;50.124;8.678;2022-12-24T10:58:52;37.72;;;6.10;;
24715;SDS011;12822;50.124;8.678;2022-12-24T11:01:18;31.80;;;5.22;;
24715;SDS011;12822;50.124;8.678;2022-12-24T11:03:45;30.42;;;5.78;;
24715;SDS011;12822;50.124;8.678;2022-12-24T11:06:23;30.77;;;5.07;;
24715;SDS011;12822;50.124;8.678;2022-12-24T11:08:49;37.30;;;6.18;;
24715;SDS011;12822;50.124;8.678;2022-12-24T11:11:16;30.65;;;6.00;;
24715;SDS011;12822;50.124;8.678;2022-12-24T11:13:44;30.15;;;5.57;;
24715;SDS011;12822;50.124;8.678;2022-12-24T11:18:37;32.70;;;5.45;;
24715;SDS011;12822;50.124;8.678;2022-12-24T11:23:34;29.80;;;5.15;;
24715;SDS011;12822;50.124;8.678;2022-12-24T11:26:01;32.30;;;5.78;;
24715;SDS011;12822;50.124;8.678;2022-12-24T11:28:30;29.05;;;5.00;;
24715;SDS011;12822;50.124;8.678;2022-12-24T11:30:59;33.13;;;6.15;;
24715;SDS011;12822;50.124;8.678;2022-12-24T11:33:28;29.58;;;4.70;;
24715;SDS011;12822;50.124;8.678;2022-12-24T11:36:02;23.63;;;4.82;;
24715;SDS011;12822;50.124;8.678;2022-12-24T11:38:29;25.83;;;4.85;;
24715;SDS011;12822;50.124;8.678;2022-12-24T11:40:57;23.02;;;5.30;;
24715;SDS011;12822;50.124;8.678;2022-12-24T11:43:24;24.15;;;4.95;;
24715;SDS011;12822;50.124;8.678;2022-12-24T11:46:13;34.35;;;5.50;;
24715;SDS011;12822;50.124;8.678;2022-12-24T11:48:39;29.55;;;5.55;;
24715;SDS011;12822;50.124;8.678;2022-12-24T11:51:06;31.52;;;5.22;;
24715;SDS011;12822;50.124;8.678;2022-12-24T11:53:47;25.17;;;5.18;;
24715;SDS011;12822;50.124;8.678;2022-12-24T11:56:16;24.63;;;4.65;;
24715;SDS011;12822;50.124;8.678;2022-12-24T11:58:53;26.70;;;4.80;;
24715;SDS011;12822;50.124;8.678;2022-12-24T12:01:23;26.95;;;5.15;;
24715;SDS011;12822;50.124;8.678;2022-12-24T12:03:52;30.80;;;4.72;;
24715;SDS011;12822;50.124;8.678;2022-12-24T12:08:49;23.42;;;4.43;;
24715;SDS011;12822;50.124;8.678;2022-12-24T12:11:15;31.50;;;5.35;;
24715;SDS011;12822;50.124;8.678;2022-12-24T12:13:42;30.33;;;4.43;;
24715;SDS011;12822;50.124;8.678;2022-12-24T12:16:13;23.65;;;4.80;;
24715;SDS011;12822;50.124;8.678;2022-12-24T12:18:43;22.38;;;4.32;;
24715;SDS011;12822;50.124;8.678;2022-12-24T12:21:12;37.33;;;5.78;;
24715;SDS011;12822;50.124;8.678;2022-12-24T12:26:12;34.30;;;5.15;;
24715;SDS011;12822;50.124;8.678;2022-12-24T12:28:41;24.90;;;4.57;;
24715;SDS011;12822;50.124;8.678;2022-12-24T12:33:46;20.05;;;4.28;;
24715;SDS011;12822;50.124;8.678;2022-12-24T12:36:15;23.92;;;4.50;;
24715;SDS011;12822;50.124;8.678;2022-12-24T12:38:42;18.67;;;4.40;;
24715;SDS011;12822;50.124;8.678;2022-12-24T12:57:41;22.05;;;4.00;;
24715;SDS011;12822;50.124;8.678;2022-12-24T13:00:09;20.95;;;3.78;;
24715;SDS011;12822;50.124;8.678;2022-12-24T13:18:23;23.80;;;4.32;;
24715;SDS011;12822;50.124;8.678;2022-12-24T13:20:52;24.83;;;4.50;;
24715;SDS011;12822;50.124;8.678;2022-12-24T13:23:19;22.25;;;4.40;;
24715;SDS011;12822;50.124;8.678;2022-12-24T13:25:46;29.42;;;4.60;;
24715;SDS011;12822;50.124;8.678;2022-12-24T13:28:29;25.60;;;5.10;;
24715;SDS011;12822;50.124;8.678;2022-12-24T13:38:34;26.08;;;4.95;;
24715;SDS011;12822;50.124;8.678;2022-12-24T13:44:02;24.50;;;4.57;;
24715;SDS011;12822;50.124;8.678;2022-12-24T13:49:21;24.70;;;5.22;;
24715;SDS011;12822;50.124;8.678;2022-12-24T13:51:50;23.75;;;4.88;;
24715;SDS011;12822;50.124;8.678;2022-12-24T13:54:17;22.13;;;5.00;;
24715;SDS011;12822;50.124;8.678;2022-12-24T13:56:47;22.20;;;4.40;;
24715;SDS011;12822;50.124;8.678;2022-12-24T13:59:32;20.25;;;3.70;;
24715;SDS011;12822;50.124;8.678;2022-12-24T14:01:59;24.05;;;4.45;;
24715;SDS011;12822;50.124;8.678;2022-12-24T14:04:26;25.05;;;4.45;;
24715;SDS011;12822;50.124;8.678;2022-12-24T14:06:53;22.83;;;4.13;;
24715;SDS011;12822;50.124;8.678;2022-12-24T14:09:23;21.92;;;3.70;;
24715;SDS011;12822;50.124;8.678;2022-12-24T14:14:30;23.48;;;4.20;;
24715;SDS011;12822;50.124;8.678;2022-12-24T14:17:09;20.20;;;4.20;;
24715;SDS011;12822;50.124;8.678;2022-12-24T14:22:13;20.90;;;4.25;;
24715;SDS011;12822;50.124;8.678;2022-12-24T14:24:45;29.38;;;4.13;;
24715;SDS011;12822;50.124;8.678;2022-12-24T14:27:18;27.88;;;4.50;;
24715;SDS011;12822;50.124;8.678;2022-12-24T14:29:47;25.15;;;5.35;;
24715;SDS011;12822;50.124;8.678;2022-12-24T14:32:14;26.27;;;4.70;;
24715;SDS011;12822;50.124;8.678;2022-12-24T14:34:40;22.30;;;4.43;;
24715;SDS011;12822;50.124;8.678;2022-12-24T14:37:07;21.92;;;4.30;;
24715;SDS011;12822;50.124;8.678;2022-12-24T14:39:36;29.55;;;5.35;;
24715;SDS011;12822;50.124;8.678;2022-12-24T14:42:09;30.83;;;5.18;;
24715;SDS011;12822;50.124;8.678;2022-12-24T14:49:38;29.73;;;5.45;;
24715;SDS011;12822;50.124;8.678;2022-12-24T14:52:22;27.38;;;4.90;;
24715;SDS011;12822;50.124;8.678;2022-12-24T14:57:19;30.30;;;5.28;;
24715;SDS011;12822;50.124;8.678;2022-12-24T15:02:39;31.40;;;6.05;;
24715;SDS011;12822;50.124;8.678;2022-12-24T15:07:40;31.80;;;6.05;;
24715;SDS011;12822;50.124;8.678;2022-12-24T15:10:07;31.23;;;6.00;;
24715;SDS011;12822;50.124;8.678;2022-12-24T15:12:44;31.60;;;5.68;;
24715;SDS011;12822;50.124;8.678;2022-12-24T15:15:14;35.80;;;5.82;;
24715;SDS011;12822;50.124;8.678;2022-12-24T15:17:41;29.17;;;5.55;;
24715;SDS011;12822;50.124;8.678;2022-12-24T15:20:11;31.35;;;5.70;;
24715;SDS011;12822;50.124;8.678;2022-12-24T15:25:16;37.58;;;6.57;;
24715;SDS011;12822;50.124;8.678;2022-12-24T15:27:42;33.33;;;5.95;;
24715;SDS011;12822;50.124;8.678;2022-12-24T15:30:12;29.10;;;5.47;;
24715;SDS011;12822;50.124;8.678;2022-12-24T15:32:38;39.90;;;6.07;;
24715;SDS011;12822;50.124;8.678;2022-12-24T15:35:04;38.38;;;5.15;;
24715;SDS011;12822;50.124;8.678;2022-12-24T15:37:34;23.38;;;5.43;;
24715;SDS011;12822;50.124;8.678;2022-12-24T15:40:06;26.00;;;5.88;;
24715;SDS011;12822;50.124;8.678;2022-12-24T15:42:35;33.92;;;5.50;;
24715;SDS011;12822;50.124;8.678;2022-12-24T15:45:06;32.90;;;5.30;;
24715;SDS011;12822;50.124;8.678;2022-12-24T15:47:40;27.10;;;6.00;;
24715;SDS011;12822;50.124;8.678;2022-12-24T15:52:36;26.33;;;5.75;;
24715;SDS011;12822;50.124;8.678;2022-12-24T15:55:04;30.92;;;5.70;;
24715;SDS011;12822;50.124;8.678;2022-12-24T15:57:33;27.30;;;4.97;;
24715;SDS011;12822;50.124;8.678;2022-12-24T15:59:59;30.13;;;5.50;;
24715;SDS011;12822;50.124;8.678;2022-12-24T16:08:18;24.58;;;5.10;;
24715;SDS011;12822;50.124;8.678;2022-12-24T16:10:32;27.33;;;5.55;;
24715;SDS011;12822;50.124;8.678;2022-12-24T16:12:58;21.38;;;5.15;;
24715;SDS011;12822;50.124;8.678;2022-12-24T16:15:25;24.25;;;5.13;;
24715;SDS011;12822;50.124;8.678;2022-12-24T16:17:51;23.92;;;5.25;;
24715;SDS011;12822;50.124;8.678;2022-12-24T16:20:19;25.65;;;5.50;;
24715;SDS011;12822;50.124;8.678;2022-12-24T16:22:46;21.88;;;5.28;;
24715;SDS011;12822;50.124;8.678;2022-12-24T16:25:25;27.55;;;5.43;;
24715;SDS011;12822;50.124;8.678;2022-12-24T16:27:51;34.95;;;5.43;;
24715;SDS011;12822;50.124;8.678;2022-12-24T16:30:18;34.08;;;5.63;;
24715;SDS011;12822;50.124;8.678;2022-12-24T16:32:45;28.85;;;5.55;;
24715;SDS011;12822;50.124;8.678;2022-12-24T16:35:24;25.83;;;5.25;;
24715;SDS011;12822;50.124;8.678;2022-12-24T16:37:51;38.60;;;6.53;;
24715;SDS011;12822;50.124;8.678;2022-12-24T16:40:17;24.73;;;5.38;;
24715;SDS011;12822;50.124;8.678;2022-12-24T16:42:43;23.77;;;4.68;;
24715;SDS011;12822;50.124;8.678;2022-12-24T16:45:28;27.80;;;5.40;;